Battlement Mesa, Colorado
Current Conditions -  °F | °C
As of 1:53 AM on Wednesday 22 Oct 2014 (Local Time) from KRIL Reporting Station
Thunderstorm Thunderstorm  
Wind Chill: 42°   Ceiling: 4700
Heat Index: 47°   Visibility: 9mi
Dew Point: 44°   Wind: 10mph
Humidity: 90%   Direction: 180°S
Pressure: 30.15"   Gusts: NA
Location:  39.44°N, 108.03°W
Report Text: KRIL 220753Z AUTO 18009KT 9SM VCTS -RA OVC047 08/07 A3015 RMK AO2 LTG DSNT S AND SW RAB03 TSB10E25B28E44 SLP170 P0008 T00830067
Loading
Personal Weather Stations






























Interactive Weather Map
Tropical Storm Tracking
New forecast layout! Learn more

10-Day Weather Forecast

Advertisements
Track Severe Weather on mobile